createdAt,value
2023-05-17T00:00:09.682Z,7.78
2023-05-17T00:02:35.938Z,7.84
2023-05-17T00:05:02.732Z,7.72
2023-05-17T00:07:28.630Z,7.74
2023-05-17T00:09:54.590Z,7.90
2023-05-17T00:12:20.498Z,7.82
2023-05-17T00:14:46.469Z,7.94
2023-05-17T00:17:16.095Z,7.95
2023-05-17T00:19:41.964Z,8.03
2023-05-17T00:22:08.080Z,7.95
2023-05-17T00:24:33.960Z,7.97
2023-05-17T00:26:59.875Z,7.90
2023-05-17T00:29:25.727Z,7.95
2023-05-17T00:31:51.652Z,7.89
2023-05-17T00:34:17.907Z,7.97
2023-05-17T00:36:43.882Z,7.93
2023-05-17T00:39:09.914Z,7.83
2023-05-17T00:41:36.424Z,7.80
2023-05-17T00:44:02.404Z,7.91
2023-05-17T00:46:28.390Z,8.01
2023-05-17T00:48:55.247Z,7.94
2023-05-17T00:51:22.105Z,7.91
2023-05-17T00:53:48.222Z,7.68
2023-05-17T00:56:14.179Z,7.69
2023-05-17T00:58:40.294Z,7.60
2023-05-17T01:01:06.760Z,7.55
2023-05-17T01:03:32.788Z,7.56
2023-05-17T01:05:58.775Z,7.64
2023-05-17T01:08:24.829Z,7.61
2023-05-17T01:11:19.328Z,7.61
2023-05-17T01:13:55.250Z,7.62
2023-05-17T01:16:35.589Z,7.53
2023-05-17T01:19:39.837Z,7.55
2023-05-17T01:22:30.956Z,7.62
2023-05-17T01:25:23.862Z,7.56
2023-05-17T01:27:50.381Z,7.55
2023-05-17T01:30:19.189Z,7.66
2023-05-17T01:32:45.208Z,7.62
2023-05-17T01:35:11.817Z,7.50
2023-05-17T01:37:41.129Z,7.59
2023-05-17T01:40:08.532Z,7.56
2023-05-17T01:42:39.869Z,7.62
2023-05-17T01:45:26.070Z,7.63
2023-05-17T01:48:04.304Z,7.65
2023-05-17T01:50:33.132Z,7.64
2023-05-17T01:53:04.971Z,7.72
2023-05-17T01:55:38.685Z,7.68
2023-05-17T01:58:08.356Z,7.50
2023-05-17T02:00:35.625Z,7.44
2023-05-17T02:03:02.186Z,7.48
2023-05-17T02:05:28.295Z,7.51
2023-05-17T02:07:54.263Z,7.48
2023-05-17T02:10:20.152Z,7.47
2023-05-17T02:12:45.984Z,7.47
2023-05-17T02:15:13.007Z,7.52
2023-05-17T02:17:39.936Z,7.44
2023-05-17T02:20:07.713Z,7.46
2023-05-17T02:22:33.653Z,7.53
2023-05-17T02:24:59.605Z,7.49
2023-05-17T02:27:25.632Z,7.50
2023-05-17T02:29:51.507Z,7.45
2023-05-17T02:32:17.432Z,7.51
2023-05-17T02:34:43.321Z,7.47
2023-05-17T02:37:09.411Z,7.52
2023-05-17T02:39:35.279Z,7.50
2023-05-17T02:42:01.229Z,7.54
2023-05-17T02:44:27.063Z,7.63
2023-05-17T02:46:53.059Z,7.65
2023-05-17T02:49:18.962Z,7.57
2023-05-17T02:51:44.945Z,7.54
2023-05-17T02:54:10.854Z,7.55
2023-05-17T02:56:36.695Z,7.50
2023-05-17T02:59:02.648Z,7.50
2023-05-17T03:01:28.647Z,7.50
2023-05-17T03:03:54.860Z,7.51
2023-05-17T03:06:21.492Z,7.44
2023-05-17T03:08:47.332Z,7.43
2023-05-17T03:11:13.261Z,7.56
2023-05-17T03:13:39.139Z,7.66
2023-05-17T03:16:05.306Z,7.59
2023-05-17T03:18:31.297Z,7.63
2023-05-17T03:20:57.335Z,7.69
2023-05-17T03:23:23.288Z,7.74
2023-05-17T03:25:49.285Z,7.58
2023-05-17T03:28:15.099Z,7.54
2023-05-17T03:30:41.109Z,7.48
2023-05-17T03:33:07.171Z,7.46
2023-05-17T03:35:33.486Z,7.59
2023-05-17T03:37:59.645Z,7.60
2023-05-17T03:40:25.597Z,7.62
2023-05-17T03:42:51.973Z,7.58
2023-05-17T03:45:17.836Z,7.64
2023-05-17T03:47:43.749Z,7.67
2023-05-17T03:50:10.358Z,7.53
2023-05-17T03:52:36.276Z,7.57
2023-05-17T03:55:02.372Z,7.75
2023-05-17T03:57:28.169Z,7.61
2023-05-17T03:59:54.156Z,7.54
2023-05-17T04:02:20.080Z,7.62
2023-05-17T04:04:49.798Z,7.66
2023-05-17T04:07:16.642Z,7.73
2023-05-17T04:09:42.623Z,7.69
2023-05-17T04:12:10.169Z,7.69
2023-05-17T04:14:37.793Z,7.62
2023-05-17T04:17:03.687Z,7.51
2023-05-17T04:19:30.315Z,7.59
2023-05-17T04:21:56.297Z,7.54
2023-05-17T04:24:22.112Z,7.57
2023-05-17T04:26:47.938Z,7.58
2023-05-17T04:29:13.909Z,7.53
2023-05-17T04:31:39.828Z,7.53
2023-05-17T04:34:05.783Z,7.59
2023-05-17T04:36:31.802Z,7.56
2023-05-17T04:38:57.649Z,7.44
2023-05-17T04:41:23.524Z,7.57
2023-05-17T04:43:49.377Z,7.58
2023-05-17T04:46:15.237Z,7.61
2023-05-17T04:48:41.572Z,7.64
2023-05-17T04:51:07.641Z,7.65
2023-05-17T04:53:33.893Z,7.66
2023-05-17T04:55:59.786Z,7.67
2023-05-17T04:58:25.889Z,7.74
2023-05-17T05:00:52.031Z,7.61
2023-05-17T05:03:18.277Z,7.64
2023-05-17T05:05:44.291Z,7.65
2023-05-17T05:08:10.445Z,7.41
2023-05-17T05:10:36.376Z,7.52
2023-05-17T05:13:02.268Z,7.40
2023-05-17T05:15:28.454Z,7.46
2023-05-17T05:17:54.645Z,7.50
2023-05-17T05:20:20.671Z,7.38
2023-05-17T05:22:46.745Z,7.38
2023-05-17T05:25:12.713Z,7.36
2023-05-17T05:27:38.897Z,7.38
2023-05-17T05:30:05.416Z,7.41
2023-05-17T05:32:31.387Z,7.49
2023-05-17T05:34:57.324Z,7.59
2023-05-17T05:37:23.314Z,7.58
2023-05-17T05:39:49.168Z,7.68
2023-05-17T05:42:15.066Z,7.61
2023-05-17T05:44:40.983Z,7.73
2023-05-17T05:47:06.839Z,7.67
2023-05-17T05:49:33.031Z,7.50
2023-05-17T05:51:59.202Z,7.59
2023-05-17T05:54:25.166Z,7.57
2023-05-17T05:56:51.096Z,7.67
2023-05-17T05:59:17.268Z,7.76
2023-05-17T06:01:43.406Z,7.68
2023-05-17T06:04:09.256Z,7.78
2023-05-17T06:06:35.269Z,7.86
2023-05-17T06:09:01.542Z,7.84
2023-05-17T06:11:27.459Z,7.95
2023-05-17T06:13:53.350Z,7.99
2023-05-17T06:16:19.237Z,7.97
2023-05-17T06:18:45.177Z,7.82
2023-05-17T06:21:14.640Z,7.90
2023-05-17T06:23:40.857Z,8.10
2023-05-17T06:26:09.845Z,7.95
2023-05-17T06:28:36.708Z,7.89
2023-05-17T06:31:02.940Z,7.92
2023-05-17T06:33:28.856Z,7.98
2023-05-17T06:35:57.488Z,8.17
2023-05-17T06:38:24.565Z,8.40
2023-05-17T06:40:54.688Z,8.66
2023-05-17T06:43:21.834Z,8.48
2023-05-17T06:45:47.701Z,8.57
2023-05-17T06:48:13.710Z,8.68
2023-05-17T06:50:39.736Z,8.63
2023-05-17T06:53:05.663Z,8.55
2023-05-17T06:55:31.980Z,8.80
2023-05-17T06:57:59.494Z,8.73
2023-05-17T07:00:25.733Z,8.83
2023-05-17T07:02:51.768Z,9.03
2023-05-17T07:05:17.824Z,8.87
2023-05-17T07:07:43.820Z,8.89
2023-05-17T07:10:10.193Z,8.86
2023-05-17T07:12:38.295Z,8.64
2023-05-17T07:15:04.696Z,8.66
2023-05-17T07:17:30.580Z,8.72
2023-05-17T07:19:56.940Z,8.76
2023-05-17T07:22:22.910Z,9.01
2023-05-17T07:24:48.838Z,8.89
2023-05-17T07:27:14.776Z,9.02
2023-05-17T07:29:44.844Z,9.20
2023-05-17T07:32:12.411Z,9.37
2023-05-17T07:34:38.265Z,9.37
2023-05-17T07:37:04.850Z,9.27
2023-05-17T07:39:31.172Z,9.13
2023-05-17T07:41:57.129Z,9.42
2023-05-17T07:44:23.016Z,9.47
2023-05-17T07:46:49.215Z,9.50
2023-05-17T07:49:15.259Z,9.50
2023-05-17T07:51:41.290Z,9.72
2023-05-17T07:54:07.234Z,9.80
2023-05-17T07:56:33.144Z,9.91
2023-05-17T07:58:59.846Z,9.52
2023-05-17T08:01:26.173Z,9.58
2023-05-17T08:03:52.079Z,9.59
2023-05-17T08:06:18.051Z,9.74
2023-05-17T08:08:44.367Z,9.93
2023-05-17T08:11:14.693Z,9.93
2023-05-17T08:13:43.314Z,9.84
2023-05-17T08:16:14.251Z,10.17
2023-05-17T08:18:42.012Z,10.26
2023-05-17T08:21:09.092Z,10.23
2023-05-17T08:23:34.978Z,10.42
2023-05-17T08:26:01.025Z,10.09
2023-05-17T08:28:28.034Z,9.90
2023-05-17T08:30:53.914Z,9.57
2023-05-17T08:33:21.809Z,9.62
2023-05-17T08:35:48.441Z,9.58
2023-05-17T08:38:14.252Z,9.65
2023-05-17T08:40:40.627Z,9.84
2023-05-17T08:43:11.179Z,9.88
2023-05-17T08:45:38.203Z,10.19
2023-05-17T08:50:35.338Z,10.40
2023-05-17T08:53:01.631Z,10.51
2023-05-17T08:55:29.908Z,10.64
2023-05-17T08:57:56.316Z,10.34
2023-05-17T09:00:24.424Z,10.28
2023-05-17T09:02:50.355Z,10.60
2023-05-17T09:05:17.155Z,11.01
2023-05-17T09:07:43.411Z,11.37
2023-05-17T09:10:09.793Z,11.26
2023-05-17T09:12:36.085Z,11.28
2023-05-17T09:15:17.704Z,11.08
2023-05-17T09:17:51.374Z,10.86
2023-05-17T09:20:38.922Z,10.83
2023-05-17T09:23:07.000Z,10.83
2023-05-17T09:25:33.576Z,10.60
2023-05-17T09:28:04.842Z,10.41
2023-05-17T09:30:32.989Z,10.33
2023-05-17T09:33:06.515Z,10.20
2023-05-17T09:35:33.062Z,10.03
2023-05-17T09:38:07.511Z,10.24
2023-05-17T09:40:37.197Z,10.16
2023-05-17T09:43:03.434Z,10.65
2023-05-17T09:45:31.767Z,11.17
2023-05-17T09:47:59.130Z,11.46
2023-05-17T09:50:26.262Z,11.80
2023-05-17T09:52:52.462Z,11.92
2023-05-17T09:55:26.880Z,11.80
2023-05-17T09:57:53.064Z,11.46
2023-05-17T10:00:20.261Z,11.36
2023-05-17T10:02:49.356Z,11.15
2023-05-17T10:05:17.128Z,11.42
2023-05-17T10:07:44.065Z,11.51
2023-05-17T10:10:11.511Z,11.87
2023-05-17T10:12:40.162Z,11.74
2023-05-17T10:15:07.747Z,12.03
2023-05-17T10:17:35.144Z,12.37
2023-05-17T10:20:04.014Z,12.64
2023-05-17T10:22:30.852Z,12.77
2023-05-17T10:24:57.892Z,12.97
2023-05-17T10:27:25.795Z,13.29
2023-05-17T10:29:53.883Z,13.28
2023-05-17T10:32:22.312Z,13.08
2023-05-17T10:35:01.612Z,12.91
2023-05-17T10:37:36.002Z,13.10
2023-05-17T10:40:02.213Z,13.31
2023-05-17T10:42:30.419Z,13.27
2023-05-17T10:44:56.327Z,13.57
2023-05-17T10:47:31.570Z,13.89
2023-05-17T10:49:57.590Z,14.16
2023-05-17T10:52:24.568Z,14.12
2023-05-17T10:54:51.244Z,13.64
2023-05-17T10:57:21.268Z,13.57
2023-05-17T10:59:58.850Z,13.61
2023-05-17T11:02:26.598Z,13.52
2023-05-17T11:04:53.422Z,13.76
2023-05-17T11:07:36.619Z,13.56
2023-05-17T11:10:11.010Z,14.09
2023-05-17T11:12:41.055Z,14.54
2023-05-17T11:15:11.720Z,15.04
2023-05-17T11:17:43.907Z,15.58
2023-05-17T11:20:31.532Z,15.66
2023-05-17T11:23:04.308Z,15.03
2023-05-17T11:25:37.802Z,15.74
2023-05-17T11:28:22.242Z,16.34
2023-05-17T11:30:55.506Z,16.69
2023-05-17T11:33:38.395Z,16.51
2023-05-17T11:36:06.723Z,16.89
2023-05-17T11:38:33.581Z,16.12
2023-05-17T11:41:27.019Z,15.80
2023-05-17T11:43:53.746Z,15.89
2023-05-17T11:46:21.564Z,15.61
2023-05-17T11:48:50.290Z,15.26
2023-05-17T11:51:17.369Z,15.73
2023-05-17T11:53:44.090Z,16.57
2023-05-17T11:56:10.941Z,16.92
2023-05-17T11:58:37.286Z,16.77
2023-05-17T12:01:04.018Z,16.88
2023-05-17T12:03:32.025Z,16.36
2023-05-17T12:06:04.316Z,15.49
2023-05-17T12:08:31.992Z,15.26
2023-05-17T12:10:58.109Z,15.95
2023-05-17T12:13:28.531Z,15.76
2023-05-17T12:16:09.061Z,16.85
2023-05-17T12:18:40.344Z,17.26
2023-05-17T12:21:07.759Z,17.17
2023-05-17T12:23:35.455Z,16.91
2023-05-17T12:26:21.215Z,16.77
2023-05-17T12:28:54.738Z,16.07
2023-05-17T12:31:33.929Z,15.93
2023-05-17T12:34:01.687Z,16.01
2023-05-17T12:36:29.622Z,17.11
2023-05-17T12:38:56.136Z,17.28
2023-05-17T12:41:25.401Z,17.06
2023-05-17T12:43:53.225Z,15.99
2023-05-17T12:46:27.625Z,15.74
2023-05-17T12:48:54.316Z,15.56
2023-05-17T12:51:23.319Z,16.06
2023-05-17T12:53:56.753Z,16.14
2023-05-17T12:56:26.305Z,16.45
2023-05-17T12:59:10.689Z,16.97
2023-05-17T13:01:39.293Z,17.39
2023-05-17T13:04:05.620Z,17.65
2023-05-17T13:06:54.266Z,17.57
2023-05-17T13:09:23.136Z,17.95
2023-05-17T13:11:56.916Z,17.57
2023-05-17T13:14:45.726Z,16.34
2023-05-17T13:17:23.236Z,17.26
2023-05-17T13:19:49.892Z,17.74
2023-05-17T13:22:15.887Z,17.91
2023-05-17T13:24:43.735Z,18.35
2023-05-17T13:27:10.392Z,17.90
2023-05-17T13:29:40.463Z,17.68
2023-05-17T13:32:08.057Z,17.79
2023-05-17T13:34:34.365Z,17.62
2023-05-17T13:37:00.288Z,17.60
2023-05-17T13:39:26.161Z,17.30
2023-05-17T13:41:52.245Z,16.76
2023-05-17T13:44:18.125Z,16.11
2023-05-17T13:46:44.007Z,16.45
2023-05-17T13:49:10.066Z,16.70
2023-05-17T13:51:39.314Z,17.22
2023-05-17T13:54:09.795Z,17.82
2023-05-17T13:56:35.718Z,17.25
2023-05-17T13:59:01.654Z,17.59
2023-05-17T14:01:27.514Z,17.78
2023-05-17T14:03:54.557Z,18.07
2023-05-17T14:06:20.785Z,18.08
2023-05-17T14:08:46.809Z,17.97
2023-05-17T14:11:12.785Z,17.33
2023-05-17T14:13:38.674Z,16.59
2023-05-17T14:16:04.904Z,17.10
2023-05-17T14:18:31.906Z,17.16
2023-05-17T14:20:57.947Z,17.62
2023-05-17T14:23:23.894Z,17.84
2023-05-17T14:25:49.881Z,17.83
2023-05-17T14:28:18.686Z,17.87
2023-05-17T14:30:45.017Z,17.56
2023-05-17T14:33:11.102Z,17.54
2023-05-17T14:35:37.324Z,17.57
2023-05-17T14:38:05.835Z,17.55
2023-05-17T14:40:32.179Z,17.39
2023-05-17T14:42:58.115Z,17.83
2023-05-17T14:45:24.193Z,17.47
2023-05-17T14:47:50.684Z,17.75
2023-05-17T14:50:16.708Z,17.44
2023-05-17T14:52:43.473Z,17.53
2023-05-17T14:55:09.950Z,16.94
2023-05-17T14:57:36.403Z,16.97
2023-05-17T15:00:08.823Z,16.60
2023-05-17T15:02:34.815Z,16.30
2023-05-17T15:05:02.897Z,16.65
2023-05-17T15:07:29.077Z,16.63
2023-05-17T15:09:55.351Z,16.68
2023-05-17T15:12:22.151Z,16.54
2023-05-17T15:14:48.029Z,16.13
2023-05-17T15:17:13.954Z,16.02
2023-05-17T15:19:40.639Z,15.99
2023-05-17T15:22:07.153Z,15.61
2023-05-17T15:24:33.141Z,15.48
2023-05-17T15:26:59.059Z,15.76
2023-05-17T15:29:25.183Z,16.09
2023-05-17T15:31:51.238Z,16.16
2023-05-17T15:34:17.307Z,15.70
2023-05-17T15:36:43.332Z,15.50
2023-05-17T15:39:10.250Z,15.58
2023-05-17T15:41:39.380Z,15.66
2023-05-17T15:44:07.192Z,15.62
2023-05-17T15:46:33.049Z,15.39
2023-05-17T15:48:58.983Z,15.89
2023-05-17T15:51:25.218Z,16.13
2023-05-17T15:53:51.177Z,16.20
2023-05-17T15:56:20.171Z,16.41
2023-05-17T15:58:46.874Z,16.72
2023-05-17T16:01:12.764Z,16.99
2023-05-17T16:03:38.669Z,16.31
2023-05-17T16:06:04.856Z,16.38
2023-05-17T16:08:30.876Z,16.19
2023-05-17T16:10:56.855Z,16.16
2023-05-17T16:13:22.932Z,16.51
2023-05-17T16:15:48.883Z,16.30
2023-05-17T16:18:15.099Z,16.23
2023-05-17T16:20:41.958Z,15.94
2023-05-17T16:23:08.054Z,14.88
2023-05-17T16:25:34.473Z,14.30
2023-05-17T16:28:00.306Z,13.76
2023-05-17T16:30:26.469Z,13.77
2023-05-17T16:32:52.391Z,13.94
2023-05-17T16:35:22.092Z,14.30
2023-05-17T16:37:49.283Z,14.45
2023-05-17T16:40:15.927Z,14.60
2023-05-17T16:42:42.170Z,14.49
2023-05-17T16:45:08.823Z,14.29
2023-05-17T16:47:35.491Z,14.18
2023-05-17T16:50:01.702Z,13.62
2023-05-17T16:52:29.525Z,13.91
2023-05-17T16:55:02.291Z,14.38
2023-05-17T16:57:30.051Z,14.59
2023-05-17T16:59:56.432Z,14.35
2023-05-17T17:02:23.750Z,14.46
2023-05-17T17:04:50.492Z,14.45
2023-05-17T17:07:16.353Z,14.62
2023-05-17T17:09:42.252Z,15.04
2023-05-17T17:12:20.477Z,15.38
2023-05-17T17:14:50.378Z,15.11
2023-05-17T17:17:16.529Z,14.88
2023-05-17T17:19:42.364Z,14.65
2023-05-17T17:22:09.198Z,14.95
2023-05-17T17:24:35.265Z,14.99
2023-05-17T17:27:01.195Z,14.44
2023-05-17T17:29:27.123Z,14.41
2023-05-17T17:31:54.976Z,14.19
2023-05-17T17:34:20.896Z,14.07
2023-05-17T17:36:46.816Z,14.14
2023-05-17T17:39:13.783Z,13.89
2023-05-17T17:41:40.218Z,13.74
2023-05-17T17:44:06.133Z,13.40
2023-05-17T17:46:32.365Z,13.40
2023-05-17T17:48:58.331Z,13.14
2023-05-17T17:51:24.292Z,12.95
2023-05-17T17:53:52.432Z,13.01
2023-05-17T17:56:18.658Z,12.76
2023-05-17T17:58:45.680Z,12.46
2023-05-17T18:01:11.950Z,12.17
2023-05-17T18:03:37.880Z,12.38
2023-05-17T18:06:04.394Z,12.34
2023-05-17T18:08:30.475Z,12.24
2023-05-17T18:10:56.315Z,12.47
2023-05-17T18:13:22.836Z,12.45
2023-05-17T18:15:48.745Z,12.57
2023-05-17T18:18:14.969Z,12.47
2023-05-17T18:20:41.028Z,12.38
2023-05-17T18:23:06.915Z,12.26
2023-05-17T18:25:33.289Z,12.04
2023-05-17T18:27:59.139Z,12.09
2023-05-17T18:30:25.041Z,12.24
2023-05-17T18:32:51.001Z,12.03
2023-05-17T18:35:17.062Z,11.87
2023-05-17T18:37:43.161Z,11.69
2023-05-17T18:40:09.505Z,11.60
2023-05-17T18:42:35.408Z,11.57
2023-05-17T18:45:01.607Z,11.29
2023-05-17T18:47:27.772Z,11.33
2023-05-17T18:49:53.830Z,11.24
2023-05-17T18:52:20.069Z,11.06
2023-05-17T18:54:46.972Z,11.06
2023-05-17T18:57:14.643Z,10.99
2023-05-17T18:59:41.123Z,10.99
2023-05-17T19:02:07.642Z,10.87
2023-05-17T19:04:33.734Z,10.93
2023-05-17T19:06:59.636Z,10.74
2023-05-17T19:09:25.554Z,10.69
2023-05-17T19:11:51.573Z,10.55
2023-05-17T19:14:17.562Z,10.47
2023-05-17T19:16:43.586Z,10.46
2023-05-17T19:19:09.642Z,10.35
2023-05-17T19:21:35.686Z,10.33
2023-05-17T19:24:01.545Z,10.38
2023-05-17T19:26:27.497Z,10.33
2023-05-17T19:28:53.404Z,10.39
2023-05-17T19:31:19.436Z,10.36
2023-05-17T19:33:45.473Z,10.37
2023-05-17T19:36:13.394Z,10.21
2023-05-17T19:38:39.573Z,10.11
2023-05-17T19:41:06.754Z,10.00
2023-05-17T19:43:35.058Z,10.07
2023-05-17T19:46:02.841Z,10.18
2023-05-17T19:48:29.062Z,9.98
2023-05-17T19:50:56.836Z,9.88
2023-05-17T19:53:23.166Z,9.86
2023-05-17T19:55:49.119Z,10.01
2023-05-17T19:58:15.153Z,9.86
2023-05-17T20:00:41.038Z,9.84
2023-05-17T20:03:07.128Z,9.85
2023-05-17T20:05:33.126Z,9.73
2023-05-17T20:08:01.729Z,9.51
2023-05-17T20:10:30.850Z,9.46
2023-05-17T20:12:57.455Z,9.32
2023-05-17T20:15:24.324Z,9.42
2023-05-17T20:17:50.621Z,9.30
2023-05-17T20:20:17.215Z,9.34
2023-05-17T20:22:44.245Z,9.49
2023-05-17T20:25:10.463Z,9.46
2023-05-17T20:27:36.644Z,9.38
2023-05-17T20:30:03.072Z,9.48
2023-05-17T20:32:28.966Z,9.53
2023-05-17T20:34:54.916Z,9.56
2023-05-17T20:37:20.990Z,9.55
2023-05-17T20:39:47.238Z,9.36
2023-05-17T20:42:17.364Z,9.34
2023-05-17T20:44:52.830Z,9.25
2023-05-17T20:47:19.125Z,9.20
2023-05-17T20:49:45.340Z,9.19
2023-05-17T20:52:12.404Z,9.14
2023-05-17T20:54:38.360Z,9.06
2023-05-17T20:57:05.888Z,8.91
2023-05-17T20:59:32.149Z,8.78
2023-05-17T21:01:58.261Z,8.76
2023-05-17T21:04:24.406Z,8.67
2023-05-17T21:06:51.580Z,8.69
2023-05-17T21:09:18.232Z,8.62
2023-05-17T21:11:44.166Z,8.46
2023-05-17T21:14:10.085Z,8.51
2023-05-17T21:16:36.082Z,8.61
2023-05-17T21:19:02.331Z,8.59
2023-05-17T21:21:28.257Z,8.35
2023-05-17T21:23:54.317Z,8.42
2023-05-17T21:26:21.038Z,8.42
2023-05-17T21:28:46.910Z,8.46
2023-05-17T21:31:13.045Z,8.50
2023-05-17T21:33:38.972Z,8.42
2023-05-17T21:36:05.276Z,8.53
2023-05-17T21:38:31.330Z,8.62
2023-05-17T21:40:57.252Z,8.52
2023-05-17T21:43:23.358Z,8.51
2023-05-17T21:45:49.310Z,8.49
2023-05-17T21:48:15.413Z,8.43
2023-05-17T21:50:41.365Z,8.52
2023-05-17T21:53:07.284Z,8.44
2023-05-17T21:55:40.966Z,8.40
2023-05-17T21:58:12.387Z,8.27
2023-05-17T22:00:38.276Z,8.22
2023-05-17T22:03:04.315Z,8.22
2023-05-17T22:05:30.446Z,8.13
2023-05-17T22:07:56.360Z,7.90
2023-05-17T22:10:23.669Z,7.83
2023-05-17T22:12:53.521Z,7.87
2023-05-17T22:15:22.521Z,7.82
2023-05-17T22:17:52.804Z,7.77
2023-05-17T22:20:22.736Z,7.76
2023-05-17T22:22:49.011Z,7.92
2023-05-17T22:25:15.812Z,7.72
2023-05-17T22:27:42.959Z,7.67
2023-05-17T22:30:09.015Z,7.57
2023-05-17T22:32:36.617Z,7.71
2023-05-17T22:35:03.210Z,7.59
2023-05-17T22:37:29.598Z,7.60
2023-05-17T22:39:55.690Z,7.59
2023-05-17T22:42:21.899Z,7.57
2023-05-17T22:44:47.769Z,7.65
2023-05-17T22:47:14.005Z,7.79
2023-05-17T22:49:40.072Z,7.92
2023-05-17T22:52:07.089Z,7.91
2023-05-17T22:54:36.600Z,7.81
2023-05-17T22:57:03.597Z,7.60
2023-05-17T22:59:31.203Z,7.70
2023-05-17T23:01:57.193Z,7.69
2023-05-17T23:04:25.380Z,7.61
2023-05-17T23:06:53.296Z,7.65
2023-05-17T23:09:21.162Z,7.62
2023-05-17T23:11:49.194Z,7.40
2023-05-17T23:14:16.705Z,7.49
2023-05-17T23:16:42.830Z,7.50
2023-05-17T23:19:09.125Z,7.34
2023-05-17T23:21:35.363Z,7.29
2023-05-17T23:24:01.258Z,7.08
2023-05-17T23:26:27.970Z,7.11
2023-05-17T23:28:54.230Z,7.28
2023-05-17T23:31:21.068Z,7.25
2023-05-17T23:33:47.017Z,7.29
2023-05-17T23:36:13.448Z,7.10
2023-05-17T23:38:39.322Z,7.03
2023-05-17T23:41:06.754Z,7.10
2023-05-17T23:43:33.856Z,7.13
2023-05-17T23:46:00.736Z,7.21
2023-05-17T23:48:27.740Z,7.19
2023-05-17T23:50:53.742Z,7.16
2023-05-17T23:53:19.705Z,7.26
2023-05-17T23:55:45.892Z,7.22
2023-05-17T23:58:11.714Z,7.07
